sensor_id;sensor_type;location;lat;lon;timestamp;pressure;altitude;pressure_sealevel;temperature;humidity
71476;BME280;59286;59.274;17.974;2023-09-19T00:01:33;99967.06;;;16.51;100.00
71476;BME280;59286;59.274;17.974;2023-09-19T00:04:01;99996.59;;;16.72;100.00
71476;BME280;59286;59.274;17.974;2023-09-19T00:06:30;99988.22;;;16.70;100.00
71476;BME280;59286;59.274;17.974;2023-09-19T00:08:57;99937.44;;;16.45;100.00
71476;BME280;59286;59.274;17.974;2023-09-19T00:11:24;99969.34;;;16.72;100.00
71476;BME280;59286;59.274;17.974;2023-09-19T00:13:51;99963.66;;;16.70;100.00
71476;BME280;59286;59.274;17.974;2023-09-19T00:16:16;99955.34;;;16.71;100.00
71476;BME280;59286;59.274;17.974;2023-09-19T00:18:44;99954.00;;;16.81;100.00
71476;BME280;59286;59.274;17.974;2023-09-19T00:21:10;99948.13;;;16.68;100.00
71476;BME280;59286;59.274;17.974;2023-09-19T00:23:36;99949.44;;;16.78;100.00
71476;BME280;59286;59.274;17.974;2023-09-19T00:26:01;99916.66;;;16.63;100.00
71476;BME280;59286;59.274;17.974;2023-09-19T00:28:30;99954.50;;;16.86;100.00
71476;BME280;59286;59.274;17.974;2023-09-19T00:30:56;99940.47;;;16.86;100.00
71476;BME280;59286;59.274;17.974;2023-09-19T00:33:26;99930.31;;;16.88;100.00
71476;BME280;59286;59.274;17.974;2023-09-19T00:35:53;99928.91;;;16.94;100.00
71476;BME280;59286;59.274;17.974;2023-09-19T00:38:19;99917.84;;;16.88;100.00
71476;BME280;59286;59.274;17.974;2023-09-19T00:40:52;99924.03;;;16.96;100.00
71476;BME280;59286;59.274;17.974;2023-09-19T00:43:19;99924.84;;;17.00;100.00
71476;BME280;59286;59.274;17.974;2023-09-19T00:45:49;99918.72;;;16.96;100.00
71476;BME280;59286;59.274;17.974;2023-09-19T00:48:16;99908.97;;;17.00;100.00
71476;BME280;59286;59.274;17.974;2023-09-19T00:50:44;99898.38;;;17.00;100.00
71476;BME280;59286;59.274;17.974;2023-09-19T00:53:14;99901.59;;;17.12;100.00
71476;BME280;59286;59.274;17.974;2023-09-19T00:55:40;99898.13;;;17.08;100.00
71476;BME280;59286;59.274;17.974;2023-09-19T00:58:08;99908.09;;;17.15;100.00
71476;BME280;59286;59.274;17.974;2023-09-19T01:00:35;99895.53;;;17.12;100.00
71476;BME280;59286;59.274;17.974;2023-09-19T01:03:01;99888.78;;;17.14;100.00
71476;BME280;59286;59.274;17.974;2023-09-19T01:05:27;99874.44;;;17.15;100.00
71476;BME280;59286;59.274;17.974;2023-09-19T01:07:53;99876.78;;;17.20;100.00
71476;BME280;59286;59.274;17.974;2023-09-19T01:10:19;99861.94;;;17.16;100.00
71476;BME280;59286;59.274;17.974;2023-09-19T01:21:08;99849.56;;;17.23;100.00
71476;BME280;59286;59.274;17.974;2023-09-19T01:26:45;99829.81;;;17.17;100.00
71476;BME280;59286;59.274;17.974;2023-09-19T01:29:39;99827.88;;;17.14;100.00
71476;BME280;59286;59.274;17.974;2023-09-19T01:32:08;99811.06;;;17.03;100.00
71476;BME280;59286;59.274;17.974;2023-09-19T01:34:45;99823.28;;;17.11;100.00
71476;BME280;59286;59.274;17.974;2023-09-19T01:37:19;99818.09;;;17.18;100.00
71476;BME280;59286;59.274;17.974;2023-09-19T01:39:47;99795.25;;;17.10;100.00
71476;BME280;59286;59.274;17.974;2023-09-19T01:45:33;99792.75;;;17.17;100.00
71476;BME280;59286;59.274;17.974;2023-09-19T01:48:21;99792.66;;;17.14;100.00
71476;BME280;59286;59.274;17.974;2023-09-19T01:51:06;99782.16;;;17.17;100.00
71476;BME280;59286;59.274;17.974;2023-09-19T01:53:44;99771.84;;;17.12;100.00
71476;BME280;59286;59.274;17.974;2023-09-19T01:56:16;99774.56;;;17.19;100.00
71476;BME280;59286;59.274;17.974;2023-09-19T01:58:49;99775.31;;;17.16;100.00
71476;BME280;59286;59.274;17.974;2023-09-19T02:01:20;99757.03;;;17.08;100.00
71476;BME280;59286;59.274;17.974;2023-09-19T02:03:50;99751.84;;;17.15;100.00
71476;BME280;59286;59.274;17.974;2023-09-19T02:06:17;99756.34;;;17.14;100.00
71476;BME280;59286;59.274;17.974;2023-09-19T02:08:43;99751.75;;;17.08;100.00
71476;BME280;59286;59.274;17.974;2023-09-19T02:11:10;99744.13;;;17.06;100.00
71476;BME280;59286;59.274;17.974;2023-09-19T02:13:35;99741.16;;;17.08;100.00
71476;BME280;59286;59.274;17.974;2023-09-19T02:16:01;99746.44;;;17.08;100.00
71476;BME280;59286;59.274;17.974;2023-09-19T02:18:27;99727.44;;;17.02;100.00
71476;BME280;59286;59.274;17.974;2023-09-19T02:20:53;99704.78;;;17.05;100.00
71476;BME280;59286;59.274;17.974;2023-09-19T02:23:20;99698.00;;;17.07;100.00
71476;BME280;59286;59.274;17.974;2023-09-19T02:25:55;99686.59;;;17.03;100.00
71476;BME280;59286;59.274;17.974;2023-09-19T02:28:22;99690.78;;;17.04;100.00
71476;BME280;59286;59.274;17.974;2023-09-19T02:30:48;99699.56;;;17.12;100.00
71476;BME280;59286;59.274;17.974;2023-09-19T02:33:14;99679.16;;;17.12;100.00
71476;BME280;59286;59.274;17.974;2023-09-19T02:35:40;99664.34;;;17.08;100.00
71476;BME280;59286;59.274;17.974;2023-09-19T02:38:05;99676.94;;;17.18;100.00
71476;BME280;59286;59.274;17.974;2023-09-19T02:40:33;99657.88;;;17.05;100.00
71476;BME280;59286;59.274;17.974;2023-09-19T02:43:01;99667.03;;;17.11;100.00
71476;BME280;59286;59.274;17.974;2023-09-19T02:45:27;99655.63;;;17.07;100.00
71476;BME280;59286;59.274;17.974;2023-09-19T02:47:53;99646.56;;;17.08;100.00
71476;BME280;59286;59.274;17.974;2023-09-19T02:50:18;99648.91;;;17.13;100.00
71476;BME280;59286;59.274;17.974;2023-09-19T02:52:45;99638.31;;;17.13;100.00
71476;BME280;59286;59.274;17.974;2023-09-19T02:55:12;99637.50;;;17.09;100.00
71476;BME280;59286;59.274;17.974;2023-09-19T02:57:45;99629.56;;;17.09;100.00
71476;BME280;59286;59.274;17.974;2023-09-19T03:00:11;99618.91;;;17.02;100.00
71476;BME280;59286;59.274;17.974;2023-09-19T03:02:37;99617.38;;;17.05;100.00
71476;BME280;59286;59.274;17.974;2023-09-19T03:05:05;99605.00;;;17.12;100.00
71476;BME280;59286;59.274;17.974;2023-09-19T03:07:31;99595.19;;;17.13;100.00
71476;BME280;59286;59.274;17.974;2023-09-19T03:09:56;99582.94;;;17.01;100.00
71476;BME280;59286;59.274;17.974;2023-09-19T03:12:21;99584.50;;;17.06;100.00
71476;BME280;59286;59.274;17.974;2023-09-19T03:14:47;99571.63;;;17.04;100.00
71476;BME280;59286;59.274;17.974;2023-09-19T03:17:13;99543.56;;;16.96;100.00
71476;BME280;59286;59.274;17.974;2023-09-19T03:19:40;99530.72;;;16.98;100.00
71476;BME280;59286;59.274;17.974;2023-09-19T03:22:05;99527.72;;;17.03;100.00
71476;BME280;59286;59.274;17.974;2023-09-19T03:24:31;99529.56;;;16.99;100.00
71476;BME280;59286;59.274;17.974;2023-09-19T03:26:57;99519.72;;;16.96;100.00
71476;BME280;59286;59.274;17.974;2023-09-19T03:29:22;99519.34;;;16.98;100.00
71476;BME280;59286;59.274;17.974;2023-09-19T03:31:48;99517.41;;;16.91;100.00
71476;BME280;59286;59.274;17.974;2023-09-19T03:34:13;99524.59;;;16.91;100.00
71476;BME280;59286;59.274;17.974;2023-09-19T03:36:38;99506.34;;;16.86;100.00
71476;BME280;59286;59.274;17.974;2023-09-19T03:39:05;99498.78;;;16.84;100.00
71476;BME280;59286;59.274;17.974;2023-09-19T03:41:31;99497.63;;;16.82;100.00
71476;BME280;59286;59.274;17.974;2023-09-19T03:43:57;99489.72;;;16.85;100.00
71476;BME280;59286;59.274;17.974;2023-09-19T03:46:22;99489.38;;;16.87;100.00
71476;BME280;59286;59.274;17.974;2023-09-19T03:48:48;99492.03;;;16.90;100.00
71476;BME280;59286;59.274;17.974;2023-09-19T03:51:13;99464.28;;;16.74;100.00
71476;BME280;59286;59.274;17.974;2023-09-19T03:53:38;99489.75;;;16.89;100.00
71476;BME280;59286;59.274;17.974;2023-09-19T03:56:04;99462.38;;;16.74;100.00
71476;BME280;59286;59.274;17.974;2023-09-19T03:58:30;99487.91;;;16.93;100.00
71476;BME280;59286;59.274;17.974;2023-09-19T04:00:56;99473.13;;;16.88;100.00
71476;BME280;59286;59.274;17.974;2023-09-19T04:03:21;99459.41;;;16.79;100.00
71476;BME280;59286;59.274;17.974;2023-09-19T04:05:47;99469.41;;;16.96;100.00
71476;BME280;59286;59.274;17.974;2023-09-19T04:08:15;99484.50;;;16.92;100.00
71476;BME280;59286;59.274;17.974;2023-09-19T04:10:44;99483.00;;;16.91;100.00
71476;BME280;59286;59.274;17.974;2023-09-19T04:13:10;99487.94;;;16.96;100.00
71476;BME280;59286;59.274;17.974;2023-09-19T04:15:36;99478.84;;;16.94;100.00
71476;BME280;59286;59.274;17.974;2023-09-19T04:18:03;99481.50;;;16.94;100.00
71476;BME280;59286;59.274;17.974;2023-09-19T04:20:28;99481.53;;;16.97;100.00
71476;BME280;59286;59.274;17.974;2023-09-19T04:22:54;99440.47;;;16.77;100.00
71476;BME280;59286;59.274;17.974;2023-09-19T04:25:20;99468.63;;;16.92;100.00
71476;BME280;59286;59.274;17.974;2023-09-19T04:27:45;99464.50;;;16.95;100.00
71476;BME280;59286;59.274;17.974;2023-09-19T04:30:11;99465.22;;;16.95;100.00
71476;BME280;59286;59.274;17.974;2023-09-19T04:32:41;99471.66;;;16.94;100.00
71476;BME280;59286;59.274;17.974;2023-09-19T04:35:07;99470.50;;;16.92;100.00
71476;BME280;59286;59.274;17.974;2023-09-19T04:37:36;99438.97;;;16.76;100.00
71476;BME280;59286;59.274;17.974;2023-09-19T04:40:03;99448.91;;;16.90;100.00
71476;BME280;59286;59.274;17.974;2023-09-19T04:42:31;99449.38;;;16.99;100.00
71476;BME280;59286;59.274;17.974;2023-09-19T04:44:56;99432.00;;;16.98;100.00
71476;BME280;59286;59.274;17.974;2023-09-19T04:47:22;99426.38;;;17.06;100.00
71476;BME280;59286;59.274;17.974;2023-09-19T04:49:47;99435.88;;;17.11;100.00
71476;BME280;59286;59.274;17.974;2023-09-19T04:52:13;99424.94;;;17.12;100.00
71476;BME280;59286;59.274;17.974;2023-09-19T04:54:40;99410.56;;;17.13;100.00
71476;BME280;59286;59.274;17.974;2023-09-19T04:57:06;99407.59;;;17.22;100.00
71476;BME280;59286;59.274;17.974;2023-09-19T04:59:32;99412.16;;;17.25;100.00
71476;BME280;59286;59.274;17.974;2023-09-19T05:01:57;99400.38;;;17.15;100.00
71476;BME280;59286;59.274;17.974;2023-09-19T05:04:23;99402.31;;;17.25;100.00
71476;BME280;59286;59.274;17.974;2023-09-19T05:06:48;99406.09;;;17.21;100.00
71476;BME280;59286;59.274;17.974;2023-09-19T05:09:14;99381.84;;;17.15;100.00
71476;BME280;59286;59.274;17.974;2023-09-19T05:11:40;99379.59;;;17.17;100.00
71476;BME280;59286;59.274;17.974;2023-09-19T05:14:06;99386.78;;;17.20;100.00
71476;BME280;59286;59.274;17.974;2023-09-19T05:16:31;99356.44;;;17.07;100.00
71476;BME280;59286;59.274;17.974;2023-09-19T05:18:57;99387.22;;;17.29;100.00
71476;BME280;59286;59.274;17.974;2023-09-19T05:21:28;99352.72;;;17.15;100.00
71476;BME280;59286;59.274;17.974;2023-09-19T05:23:54;99370.94;;;17.27;100.00
71476;BME280;59286;59.274;17.974;2023-09-19T05:26:19;99351.22;;;17.21;100.00
71476;BME280;59286;59.274;17.974;2023-09-19T05:28:46;99360.03;;;17.36;100.00
71476;BME280;59286;59.274;17.974;2023-09-19T05:31:13;99359.28;;;17.39;100.00
71476;BME280;59286;59.274;17.974;2023-09-19T05:33:39;99354.00;;;17.42;100.00
71476;BME280;59286;59.274;17.974;2023-09-19T05:36:05;99349.06;;;17.37;100.00
71476;BME280;59286;59.274;17.974;2023-09-19T05:38:30;99357.44;;;17.47;100.00
71476;BME280;59286;59.274;17.974;2023-09-19T05:40:56;99343.44;;;17.46;100.00
71476;BME280;59286;59.274;17.974;2023-09-19T05:43:21;99339.25;;;17.41;100.00
71476;BME280;59286;59.274;17.974;2023-09-19T05:45:47;99322.59;;;17.41;100.00
71476;BME280;59286;59.274;17.974;2023-09-19T05:48:14;99334.41;;;17.51;100.00
71476;BME280;59286;59.274;17.974;2023-09-19T05:50:40;99331.38;;;17.49;100.00
71476;BME280;59286;59.274;17.974;2023-09-19T05:53:06;99322.59;;;17.41;100.00
71476;BME280;59286;59.274;17.974;2023-09-19T05:55:32;99331.78;;;17.54;100.00
71476;BME280;59286;59.274;17.974;2023-09-19T05:57:57;99326.09;;;17.56;100.00
71476;BME280;59286;59.274;17.974;2023-09-19T06:00:24;99333.28;;;17.52;100.00
71476;BME280;59286;59.274;17.974;2023-09-19T06:02:51;99330.63;;;17.55;100.00
71476;BME280;59286;59.274;17.974;2023-09-19T06:05:17;99327.66;;;17.64;100.00
71476;BME280;59286;59.274;17.974;2023-09-19T06:07:42;99323.09;;;17.61;100.00
71476;BME280;59286;59.274;17.974;2023-09-19T06:10:08;99317.78;;;17.61;100.00
71476;BME280;59286;59.274;17.974;2023-09-19T06:12:38;99332.22;;;17.67;100.00
71476;BME280;59286;59.274;17.974;2023-09-19T06:15:04;99319.72;;;17.64;100.00
71476;BME280;59286;59.274;17.974;2023-09-19T06:17:34;99316.31;;;17.63;100.00
71476;BME280;59286;59.274;17.974;2023-09-19T06:20:05;99298.13;;;17.62;100.00
71476;BME280;59286;59.274;17.974;2023-09-19T06:22:35;99290.56;;;17.64;100.00
71476;BME280;59286;59.274;17.974;2023-09-19T06:25:02;99312.59;;;17.82;100.00
71476;BME280;59286;59.274;17.974;2023-09-19T06:27:27;99305.75;;;17.77;100.00
71476;BME280;59286;59.274;17.974;2023-09-19T06:29:54;99289.09;;;17.73;100.00
71476;BME280;59286;59.274;17.974;2023-09-19T06:32:26;99311.84;;;17.85;100.00
71476;BME280;59286;59.274;17.974;2023-09-19T06:34:52;99296.69;;;17.82;100.00
71476;BME280;59286;59.274;17.974;2023-09-19T06:37:20;99295.53;;;17.76;100.00
71476;BME280;59286;59.274;17.974;2023-09-19T06:39:46;99307.28;;;17.82;100.00
71476;BME280;59286;59.274;17.974;2023-09-19T06:42:13;99294.41;;;17.80;100.00
71476;BME280;59286;59.274;17.974;2023-09-19T06:44:38;99286.88;;;17.86;100.00
71476;BME280;59286;59.274;17.974;2023-09-19T06:47:04;99297.47;;;17.93;100.00
71476;BME280;59286;59.274;17.974;2023-09-19T06:49:31;99294.84;;;18.00;100.00
71476;BME280;59286;59.274;17.974;2023-09-19T06:51:56;99280.81;;;17.92;100.00
71476;BME280;59286;59.274;17.974;2023-09-19T06:54:22;99289.16;;;17.94;100.00
71476;BME280;59286;59.274;17.974;2023-09-19T06:56:48;99301.28;;;17.95;100.00
71476;BME280;59286;59.274;17.974;2023-09-19T06:59:13;99298.63;;;17.92;100.00
71476;BME280;59286;59.274;17.974;2023-09-19T07:01:40;99298.25;;;17.90;100.00
71476;BME280;59286;59.274;17.974;2023-09-19T07:04:06;99292.16;;;17.82;100.00
71476;BME280;59286;59.274;17.974;2023-09-19T07:06:32;99296.31;;;17.87;100.00
71476;BME280;59286;59.274;17.974;2023-09-19T07:08:57;99289.84;;;17.77;100.00
71476;BME280;59286;59.274;17.974;2023-09-19T07:11:22;99273.59;;;17.75;100.00
71476;BME280;59286;59.274;17.974;2023-09-19T07:13:48;99282.66;;;17.78;100.00
71476;BME280;59286;59.274;17.974;2023-09-19T07:16:14;99257.69;;;17.75;100.00
71476;BME280;59286;59.274;17.974;2023-09-19T07:18:52;99283.81;;;17.77;100.00
71476;BME280;59286;59.274;17.974;2023-09-19T07:21:18;99280.00;;;17.78;100.00
71476;BME280;59286;59.274;17.974;2023-09-19T07:23:43;99273.19;;;17.77;100.00
71476;BME280;59286;59.274;17.974;2023-09-19T07:26:08;99245.16;;;17.69;100.00
71476;BME280;59286;59.274;17.974;2023-09-19T07:28:34;99257.69;;;17.79;100.00
71476;BME280;59286;59.274;17.974;2023-09-19T07:31:02;99244.03;;;17.77;100.00
71476;BME280;59286;59.274;17.974;2023-09-19T07:33:28;99249.00;;;17.89;100.00
71476;BME280;59286;59.274;17.974;2023-09-19T07:35:53;99246.34;;;17.89;100.00
71476;BME280;59286;59.274;17.974;2023-09-19T07:38:19;99203.13;;;17.74;100.00
71476;BME280;59286;59.274;17.974;2023-09-19T07:40:46;99213.00;;;17.84;100.00
71476;BME280;59286;59.274;17.974;2023-09-19T07:43:11;99233.13;;;17.99;100.00
71476;BME280;59286;59.274;17.974;2023-09-19T07:45:36;99223.63;;;18.02;100.00
71476;BME280;59286;59.274;17.974;2023-09-19T07:48:02;99194.47;;;17.88;100.00
71476;BME280;59286;59.274;17.974;2023-09-19T07:50:30;99214.94;;;18.05;100.00
71476;BME280;59286;59.274;17.974;2023-09-19T07:52:55;99207.75;;;18.12;100.00
71476;BME280;59286;59.274;17.974;2023-09-19T07:55:21;99211.53;;;18.22;100.00
71476;BME280;59286;59.274;17.974;2023-09-19T07:57:50;99215.72;;;18.30;100.00
71476;BME280;59286;59.274;17.974;2023-09-19T08:00:16;99208.91;;;18.32;100.00
71476;BME280;59286;59.274;17.974;2023-09-19T08:02:42;99192.59;;;18.23;100.00
71476;BME280;59286;59.274;17.974;2023-09-19T08:05:09;99215.00;;;18.44;100.00
71476;BME280;59286;59.274;17.974;2023-09-19T08:07:43;99214.97;;;18.47;100.00
71476;BME280;59286;59.274;17.974;2023-09-19T08:10:09;99214.22;;;18.50;100.00
71476;BME280;59286;59.274;17.974;2023-09-19T08:12:44;99203.25;;;18.52;100.00
71476;BME280;59286;59.274;17.974;2023-09-19T08:15:17;99219.16;;;18.55;100.00
71476;BME280;59286;59.274;17.974;2023-09-19T08:17:46;99207.41;;;18.56;100.00
71476;BME280;59286;59.274;17.974;2023-09-19T08:20:13;99206.66;;;18.59;100.00
71476;BME280;59286;59.274;17.974;2023-09-19T08:22:53;99214.22;;;18.64;100.00
71476;BME280;59286;59.274;17.974;2023-09-19T08:25:20;99214.97;;;18.61;100.00
71476;BME280;59286;59.274;17.974;2023-09-19T08:27:47;99199.44;;;18.49;100.00
71476;BME280;59286;59.274;17.974;2023-09-19T08:30:17;99211.19;;;18.55;100.00
71476;BME280;59286;59.274;17.974;2023-09-19T08:32:43;99210.81;;;18.60;100.00
71476;BME280;59286;59.274;17.974;2023-09-19T08:35:10;99197.16;;;18.55;100.00
71476;BME280;59286;59.274;17.974;2023-09-19T08:37:35;99204.38;;;18.65;100.00
71476;BME280;59286;59.274;17.974;2023-09-19T08:40:01;99198.28;;;18.68;100.00
71476;BME280;59286;59.274;17.974;2023-09-19T08:42:27;99183.88;;;18.65;100.00
71476;BME280;59286;59.274;17.974;2023-09-19T08:44:52;99190.69;;;18.73;100.00
71476;BME280;59286;59.274;17.974;2023-09-19T08:47:28;99185.75;;;18.75;100.00
71476;BME280;59286;59.274;17.974;2023-09-19T08:50:04;99193.31;;;18.84;100.00
71476;BME280;59286;59.274;17.974;2023-09-19T08:52:42;99187.59;;;18.96;100.00
71476;BME280;59286;59.274;17.974;2023-09-19T08:55:12;99183.06;;;19.00;100.00
71476;BME280;59286;59.274;17.974;2023-09-19T08:57:38;99185.28;;;19.12;100.00
71476;BME280;59286;59.274;17.974;2023-09-19T09:00:08;99183.00;;;19.14;100.00
71476;BME280;59286;59.274;17.974;2023-09-19T09:02:40;99157.22;;;19.07;100.00
71476;BME280;59286;59.274;17.974;2023-09-19T09:05:08;99173.84;;;19.25;100.00
71476;BME280;59286;59.274;17.974;2023-09-19T09:07:36;99160.91;;;19.38;100.00
71476;BME280;59286;59.274;17.974;2023-09-19T09:10:05;99149.44;;;19.52;100.00
71476;BME280;59286;59.274;17.974;2023-09-19T09:12:32;99142.59;;;19.51;100.00
71476;BME280;59286;59.274;17.974;2023-09-19T09:14:59;99145.59;;;19.63;100.00
71476;BME280;59286;59.274;17.974;2023-09-19T09:17:26;99138.34;;;19.64;100.00
71476;BME280;59286;59.274;17.974;2023-09-19T09:19:52;99139.44;;;19.73;100.00
71476;BME280;59286;59.274;17.974;2023-09-19T09:22:18;99139.41;;;19.77;100.00
71476;BME280;59286;59.274;17.974;2023-09-19T09:27:26;99141.59;;;19.89;100.00
71476;BME280;59286;59.274;17.974;2023-09-19T09:29:52;99141.16;;;19.97;100.00
71476;BME280;59286;59.274;17.974;2023-09-19T09:34:54;99142.88;;;20.25;100.00
71476;BME280;59286;59.274;17.974;2023-09-19T09:37:20;99137.84;;;20.34;100.00
71476;BME280;59286;59.274;17.974;2023-09-19T09:40:05;99139.38;;;20.32;100.00
71476;BME280;59286;59.274;17.974;2023-09-19T09:42:57;99149.34;;;20.24;100.00
71476;BME280;59286;59.274;17.974;2023-09-19T09:45:25;99118.41;;;19.93;100.00
71476;BME280;59286;59.274;17.974;2023-09-19T09:48:03;99149.47;;;20.03;100.00
71476;BME280;59286;59.274;17.974;2023-09-19T09:50:34;99132.81;;;19.99;100.00
71476;BME280;59286;59.274;17.974;2023-09-19T09:56:06;99139.22;;;20.01;100.00
71476;BME280;59286;59.274;17.974;2023-09-19T09:58:33;99148.75;;;19.99;100.00
71476;BME280;59286;59.274;17.974;2023-09-19T10:00:59;99140.06;;;19.95;100.00
71476;BME280;59286;59.274;17.974;2023-09-19T10:03:37;99142.66;;;20.02;100.00
71476;BME280;59286;59.274;17.974;2023-09-19T10:06:13;99136.88;;;20.10;100.00
71476;BME280;59286;59.274;17.974;2023-09-19T10:09:10;99120.81;;;20.24;100.00
71476;BME280;59286;59.274;17.974;2023-09-19T10:12:21;99125.19;;;20.45;100.00
71476;BME280;59286;59.274;17.974;2023-09-19T10:14:26;99115.03;;;20.33;100.00
71476;BME280;59286;59.274;17.974;2023-09-19T10:16:56;99126.47;;;20.30;100.00
71476;BME280;59286;59.274;17.974;2023-09-19T10:22:46;99111.53;;;20.43;100.00
71476;BME280;59286;59.274;17.974;2023-09-19T10:25:25;99123.63;;;20.51;100.00
71476;BME280;59286;59.274;17.974;2023-09-19T10:27:52;99115.41;;;20.35;100.00
71476;BME280;59286;59.274;17.974;2023-09-19T10:30:22;99109.16;;;20.52;100.00
71476;BME280;59286;59.274;17.974;2023-09-19T10:32:56;99079.47;;;20.54;100.00
71476;BME280;59286;59.274;17.974;2023-09-19T10:35:23;99104.31;;;20.77;100.00
71476;BME280;59286;59.274;17.974;2023-09-19T10:37:50;99096.91;;;20.92;100.00
71476;BME280;59286;59.274;17.974;2023-09-19T10:40:18;99101.91;;;20.86;99.95
71476;BME280;59286;59.274;17.974;2023-09-19T10:42:45;99112.31;;;20.77;100.00
71476;BME280;59286;59.274;17.974;2023-09-19T10:45:12;99105.63;;;20.62;99.29
71476;BME280;59286;59.274;17.974;2023-09-19T10:47:39;99114.91;;;20.47;98.63
71476;BME280;59286;59.274;17.974;2023-09-19T10:50:06;99128.66;;;20.39;99.81
71476;BME280;59286;59.274;17.974;2023-09-19T10:52:33;99114.53;;;20.45;100.00
71476;BME280;59286;59.274;17.974;2023-09-19T10:55:00;99110.69;;;20.50;98.62
71476;BME280;59286;59.274;17.974;2023-09-19T10:57:27;99111.72;;;20.59;99.46
71476;BME280;59286;59.274;17.974;2023-09-19T11:00:07;99111.38;;;20.57;96.80
71476;BME280;59286;59.274;17.974;2023-09-19T11:05:40;99104.66;;;20.46;99.58
71476;BME280;59286;59.274;17.974;2023-09-19T11:08:09;99105.22;;;20.64;99.29
71476;BME280;59286;59.274;17.974;2023-09-19T11:10:49;99114.66;;;20.68;97.12
71476;BME280;59286;59.274;17.974;2023-09-19T11:26:41;99102.28;;;20.88;93.14
71476;BME280;59286;59.274;17.974;2023-09-19T11:29:31;99098.84;;;20.88;87.93
71476;BME280;59286;59.274;17.974;2023-09-19T11:31:57;99101.06;;;20.59;88.72
71476;BME280;59286;59.274;17.974;2023-09-19T11:39:40;99115.03;;;19.85;76.92
71476;BME280;59286;59.274;17.974;2023-09-19T11:42:46;99107.19;;;19.68;75.06
71476;BME280;59286;59.274;17.974;2023-09-19T11:48:13;99102.56;;;19.75;74.01
71476;BME280;59286;59.274;17.974;2023-09-19T11:50:42;99094.59;;;19.75;71.86
71476;BME280;59286;59.274;17.974;2023-09-19T11:53:10;99093.47;;;19.76;72.44
71476;BME280;59286;59.274;17.974;2023-09-19T11:55:38;99096.81;;;19.84;73.14
71476;BME280;59286;59.274;17.974;2023-09-19T11:58:06;99100.56;;;19.90;73.56
71476;BME280;59286;59.274;17.974;2023-09-19T12:00:34;99098.13;;;20.09;71.46
71476;BME280;59286;59.274;17.974;2023-09-19T12:03:04;99095.78;;;20.18;71.80
71476;BME280;59286;59.274;17.974;2023-09-19T12:05:32;99100.94;;;20.36;67.40
71476;BME280;59286;59.274;17.974;2023-09-19T12:07:59;99092.56;;;20.38;68.62
71476;BME280;59286;59.274;17.974;2023-09-19T12:10:24;99075.72;;;20.07;65.98
71476;BME280;59286;59.274;17.974;2023-09-19T12:12:50;99107.56;;;20.21;63.22
71476;BME280;59286;59.274;17.974;2023-09-19T12:15:23;99111.06;;;20.07;65.94
71476;BME280;59286;59.274;17.974;2023-09-19T12:17:50;99109.25;;;19.94;64.98
71476;BME280;59286;59.274;17.974;2023-09-19T12:20:15;99110.38;;;20.00;66.06
71476;BME280;59286;59.274;17.974;2023-09-19T12:22:43;99072.63;;;19.68;66.16
71476;BME280;59286;59.274;17.974;2023-09-19T12:25:09;99105.09;;;19.93;66.45
71476;BME280;59286;59.274;17.974;2023-09-19T12:27:46;99099.81;;;19.89;66.06
71476;BME280;59286;59.274;17.974;2023-09-19T12:30:16;99099.47;;;19.84;66.62
71476;BME280;59286;59.274;17.974;2023-09-19T12:32:44;99092.28;;;19.81;66.39
71476;BME280;59286;59.274;17.974;2023-09-19T12:35:27;99106.69;;;19.83;65.33
71476;BME280;59286;59.274;17.974;2023-09-19T12:37:53;99095.81;;;19.67;64.77
71476;BME280;59286;59.274;17.974;2023-09-19T12:40:21;99108.75;;;19.62;64.63
71476;BME280;59286;59.274;17.974;2023-09-19T12:42:53;99111.91;;;19.43;66.33
71476;BME280;59286;59.274;17.974;2023-09-19T12:45:20;99088.81;;;19.25;67.02
71476;BME280;59286;59.274;17.974;2023-09-19T12:48:18;99108.50;;;19.39;66.58
71476;BME280;59286;59.274;17.974;2023-09-19T12:53:43;99105.53;;;19.22;65.90
71476;BME280;59286;59.274;17.974;2023-09-19T12:56:13;99119.22;;;19.17;65.12
71476;BME280;59286;59.274;17.974;2023-09-19T12:58:52;99113.94;;;19.10;66.88
71476;BME280;59286;59.274;17.974;2023-09-19T13:01:22;99099.16;;;19.06;67.63
71476;BME280;59286;59.274;17.974;2023-09-19T13:04:15;99109.78;;;19.09;68.72
71476;BME280;59286;59.274;17.974;2023-09-19T13:06:45;99099.91;;;19.06;69.62
71476;BME280;59286;59.274;17.974;2023-09-19T13:09:12;99108.59;;;19.14;69.29
71476;BME280;59286;59.274;17.974;2023-09-19T13:11:40;99115.44;;;19.15;68.45
71476;BME280;59286;59.274;17.974;2023-09-19T13:14:24;99116.97;;;19.12;68.35
71476;BME280;59286;59.274;17.974;2023-09-19T13:17:03;99118.09;;;19.11;69.45
71476;BME280;59286;59.274;17.974;2023-09-19T13:19:46;99125.28;;;19.18;67.85
71476;BME280;59286;59.274;17.974;2023-09-19T13:22:36;99126.06;;;19.15;67.07
71476;BME280;59286;59.274;17.974;2023-09-19T13:25:01;99120.75;;;19.11;66.79
71476;BME280;59286;59.274;17.974;2023-09-19T13:27:29;99129.13;;;19.06;66.87
71476;BME280;59286;59.274;17.974;2023-09-19T13:29:54;99118.88;;;19.08;67.52
71476;BME280;59286;59.274;17.974;2023-09-19T13:32:19;99114.03;;;18.86;63.02
71476;BME280;59286;59.274;17.974;2023-09-19T13:34:45;99119.03;;;18.66;60.52
71476;BME280;59286;59.274;17.974;2023-09-19T13:37:10;99121.72;;;18.59;62.50
71476;BME280;59286;59.274;17.974;2023-09-19T13:39:35;99129.28;;;18.50;62.33
71476;BME280;59286;59.274;17.974;2023-09-19T13:42:01;99141.81;;;18.50;62.21
71476;BME280;59286;59.274;17.974;2023-09-19T13:44:28;99107.31;;;18.14;62.12